sensor_id;sensor_type;location;lat;lon;timestamp;temperature;humidity
21039;DHT22;10678;51.002;4.786;2023-05-10T00:01:47;15.00;99.90
21039;DHT22;10678;51.002;4.786;2023-05-10T00:04:13;14.90;99.90
21039;DHT22;10678;51.002;4.786;2023-05-10T00:06:39;14.90;99.90
21039;DHT22;10678;51.002;4.786;2023-05-10T00:09:04;14.90;99.90
21039;DHT22;10678;51.002;4.786;2023-05-10T00:11:30;14.90;99.90
21039;DHT22;10678;51.002;4.786;2023-05-10T00:13:56;14.90;99.90
21039;DHT22;10678;51.002;4.786;2023-05-10T00:16:21;14.90;99.90
21039;DHT22;10678;51.002;4.786;2023-05-10T00:18:47;15.00;99.90
21039;DHT22;10678;51.002;4.786;2023-05-10T00:21:13;14.90;99.90
21039;DHT22;10678;51.002;4.786;2023-05-10T00:23:38;14.90;99.90
21039;DHT22;10678;51.002;4.786;2023-05-10T00:26:04;14.80;99.90
21039;DHT22;10678;51.002;4.786;2023-05-10T00:28:30;15.00;99.90
21039;DHT22;10678;51.002;4.786;2023-05-10T00:30:55;15.00;99.90
21039;DHT22;10678;51.002;4.786;2023-05-10T00:33:21;15.00;99.90
21039;DHT22;10678;51.002;4.786;2023-05-10T00:35:47;15.00;99.90
21039;DHT22;10678;51.002;4.786;2023-05-10T00:38:12;14.90;99.90
21039;DHT22;10678;51.002;4.786;2023-05-10T00:40:38;15.00;99.90
21039;DHT22;10678;51.002;4.786;2023-05-10T00:43:04;15.00;99.90
21039;DHT22;10678;51.002;4.786;2023-05-10T00:45:31;14.90;99.90
21039;DHT22;10678;51.002;4.786;2023-05-10T00:47:58;14.90;99.90
21039;DHT22;10678;51.002;4.786;2023-05-10T00:50:25;15.00;99.90
21039;DHT22;10678;51.002;4.786;2023-05-10T00:52:51;15.00;99.90
21039;DHT22;10678;51.002;4.786;2023-05-10T00:55:18;15.10;99.90
21039;DHT22;10678;51.002;4.786;2023-05-10T00:57:44;15.10;99.90
21039;DHT22;10678;51.002;4.786;2023-05-10T01:00:10;15.10;99.90
21039;DHT22;10678;51.002;4.786;2023-05-10T01:02:36;15.10;99.90
21039;DHT22;10678;51.002;4.786;2023-05-10T01:05:03;15.00;99.90
21039;DHT22;10678;51.002;4.786;2023-05-10T01:07:29;15.10;99.90
21039;DHT22;10678;51.002;4.786;2023-05-10T01:09:55;15.10;99.90
21039;DHT22;10678;51.002;4.786;2023-05-10T01:12:21;15.10;99.90
21039;DHT22;10678;51.002;4.786;2023-05-10T01:14:47;15.20;99.90
21039;DHT22;10678;51.002;4.786;2023-05-10T01:17:13;15.10;99.90
21039;DHT22;10678;51.002;4.786;2023-05-10T01:19:39;15.00;99.90
21039;DHT22;10678;51.002;4.786;2023-05-10T01:22:31;15.00;99.90
21039;DHT22;10678;51.002;4.786;2023-05-10T01:35:52;15.10;99.90
21039;DHT22;10678;51.002;4.786;2023-05-10T01:38:35;15.10;99.90
21039;DHT22;10678;51.002;4.786;2023-05-10T01:41:25;15.00;99.90
21039;DHT22;10678;51.002;4.786;2023-05-10T01:46:35;15.00;99.90
21039;DHT22;10678;51.002;4.786;2023-05-10T01:49:06;15.00;99.90
21039;DHT22;10678;51.002;4.786;2023-05-10T01:51:48;15.00;99.90
21039;DHT22;10678;51.002;4.786;2023-05-10T01:54:18;15.00;99.90
21039;DHT22;10678;51.002;4.786;2023-05-10T01:56:48;15.00;99.90
21039;DHT22;10678;51.002;4.786;2023-05-10T01:59:18;15.00;99.90
21039;DHT22;10678;51.002;4.786;2023-05-10T02:01:45;15.00;99.90
21039;DHT22;10678;51.002;4.786;2023-05-10T02:04:14;14.90;99.90
21039;DHT22;10678;51.002;4.786;2023-05-10T02:06:41;14.90;99.90
21039;DHT22;10678;51.002;4.786;2023-05-10T02:09:09;15.00;99.90
21039;DHT22;10678;51.002;4.786;2023-05-10T02:11:37;15.00;99.90
21039;DHT22;10678;51.002;4.786;2023-05-10T02:14:06;15.00;99.90
21039;DHT22;10678;51.002;4.786;2023-05-10T02:16:32;15.00;99.90
21039;DHT22;10678;51.002;4.786;2023-05-10T02:19:02;15.00;99.90
21039;DHT22;10678;51.002;4.786;2023-05-10T02:21:29;14.90;99.90
21039;DHT22;10678;51.002;4.786;2023-05-10T02:23:57;14.90;99.90
21039;DHT22;10678;51.002;4.786;2023-05-10T02:26:24;15.00;99.90
21039;DHT22;10678;51.002;4.786;2023-05-10T02:28:52;14.90;99.90
21039;DHT22;10678;51.002;4.786;2023-05-10T02:31:19;14.90;99.90
21039;DHT22;10678;51.002;4.786;2023-05-10T02:33:46;14.90;99.90
21039;DHT22;10678;51.002;4.786;2023-05-10T02:36:12;14.90;99.90
21039;DHT22;10678;51.002;4.786;2023-05-10T02:38:39;14.90;99.90
21039;DHT22;10678;51.002;4.786;2023-05-10T02:41:08;14.80;99.90
21039;DHT22;10678;51.002;4.786;2023-05-10T02:43:36;14.80;99.90
21039;DHT22;10678;51.002;4.786;2023-05-10T02:46:03;14.90;99.90
21039;DHT22;10678;51.002;4.786;2023-05-10T02:48:29;14.90;99.90
21039;DHT22;10678;51.002;4.786;2023-05-10T02:50:56;14.90;99.90
21039;DHT22;10678;51.002;4.786;2023-05-10T02:53:31;14.90;99.90
21039;DHT22;10678;51.002;4.786;2023-05-10T02:56:05;14.90;99.90
21039;DHT22;10678;51.002;4.786;2023-05-10T02:58:33;14.90;99.90
21039;DHT22;10678;51.002;4.786;2023-05-10T03:00:59;15.00;99.90
21039;DHT22;10678;51.002;4.786;2023-05-10T03:03:25;14.90;99.90
21039;DHT22;10678;51.002;4.786;2023-05-10T03:05:51;14.90;99.90
21039;DHT22;10678;51.002;4.786;2023-05-10T03:08:19;14.90;99.90
21039;DHT22;10678;51.002;4.786;2023-05-10T03:14:03;14.90;99.90
21039;DHT22;10678;51.002;4.786;2023-05-10T03:16:45;14.90;99.90
21039;DHT22;10678;51.002;4.786;2023-05-10T03:19:17;14.90;99.90
21039;DHT22;10678;51.002;4.786;2023-05-10T03:21:49;14.80;99.90
21039;DHT22;10678;51.002;4.786;2023-05-10T03:24:16;14.80;99.90
21039;DHT22;10678;51.002;4.786;2023-05-10T03:26:45;14.80;99.90
21039;DHT22;10678;51.002;4.786;2023-05-10T03:29:12;14.80;99.90
21039;DHT22;10678;51.002;4.786;2023-05-10T03:31:39;14.70;99.90
21039;DHT22;10678;51.002;4.786;2023-05-10T03:34:05;14.70;99.90
21039;DHT22;10678;51.002;4.786;2023-05-10T03:36:32;14.70;99.90
21039;DHT22;10678;51.002;4.786;2023-05-10T03:38:58;14.70;99.90
21039;DHT22;10678;51.002;4.786;2023-05-10T03:41:23;14.70;99.90
21039;DHT22;10678;51.002;4.786;2023-05-10T03:43:50;14.60;99.90
21039;DHT22;10678;51.002;4.786;2023-05-10T03:46:16;14.60;99.90
21039;DHT22;10678;51.002;4.786;2023-05-10T03:48:41;14.50;99.90
21039;DHT22;10678;51.002;4.786;2023-05-10T03:51:07;14.50;99.90
21039;DHT22;10678;51.002;4.786;2023-05-10T03:53:33;14.60;99.90
21039;DHT22;10678;51.002;4.786;2023-05-10T03:55:59;14.40;99.90
21039;DHT22;10678;51.002;4.786;2023-05-10T03:58:24;14.50;99.90
21039;DHT22;10678;51.002;4.786;2023-05-10T04:00:51;14.40;99.90
21039;DHT22;10678;51.002;4.786;2023-05-10T04:03:17;14.40;99.90
21039;DHT22;10678;51.002;4.786;2023-05-10T04:05:43;14.40;99.90
21039;DHT22;10678;51.002;4.786;2023-05-10T04:08:08;14.40;99.90
21039;DHT22;10678;51.002;4.786;2023-05-10T04:10:34;14.50;99.90
21039;DHT22;10678;51.002;4.786;2023-05-10T04:13:00;14.40;99.90
21039;DHT22;10678;51.002;4.786;2023-05-10T04:15:26;14.40;99.90
21039;DHT22;10678;51.002;4.786;2023-05-10T04:17:51;14.50;99.90
21039;DHT22;10678;51.002;4.786;2023-05-10T04:20:17;14.40;99.90
21039;DHT22;10678;51.002;4.786;2023-05-10T04:22:43;14.40;99.90
21039;DHT22;10678;51.002;4.786;2023-05-10T04:25:08;14.30;99.90
21039;DHT22;10678;51.002;4.786;2023-05-10T04:27:34;14.40;99.90
21039;DHT22;10678;51.002;4.786;2023-05-10T04:30:00;14.40;99.90
21039;DHT22;10678;51.002;4.786;2023-05-10T04:32:25;14.30;99.90
21039;DHT22;10678;51.002;4.786;2023-05-10T04:34:51;14.40;99.90
21039;DHT22;10678;51.002;4.786;2023-05-10T04:37:17;14.40;99.90
21039;DHT22;10678;51.002;4.786;2023-05-10T04:39:43;14.50;99.90
21039;DHT22;10678;51.002;4.786;2023-05-10T04:42:09;14.40;99.90
21039;DHT22;10678;51.002;4.786;2023-05-10T04:44:35;14.60;99.90
21039;DHT22;10678;51.002;4.786;2023-05-10T04:47:01;14.40;99.90
21039;DHT22;10678;51.002;4.786;2023-05-10T04:49:28;14.40;99.90
21039;DHT22;10678;51.002;4.786;2023-05-10T04:51:55;14.40;99.90
21039;DHT22;10678;51.002;4.786;2023-05-10T04:54:20;14.30;99.90
21039;DHT22;10678;51.002;4.786;2023-05-10T04:56:46;14.40;99.90
21039;DHT22;10678;51.002;4.786;2023-05-10T04:59:11;14.40;99.90
21039;DHT22;10678;51.002;4.786;2023-05-10T05:01:37;14.40;99.90
21039;DHT22;10678;51.002;4.786;2023-05-10T05:04:03;14.40;99.90
21039;DHT22;10678;51.002;4.786;2023-05-10T05:06:29;14.50;99.90
21039;DHT22;10678;51.002;4.786;2023-05-10T05:08:54;14.60;99.90
21039;DHT22;10678;51.002;4.786;2023-05-10T05:11:20;14.70;99.90
21039;DHT22;10678;51.002;4.786;2023-05-10T05:13:46;14.70;99.90
21039;DHT22;10678;51.002;4.786;2023-05-10T05:16:12;14.60;99.90
21039;DHT22;10678;51.002;4.786;2023-05-10T05:18:38;14.70;99.90
21039;DHT22;10678;51.002;4.786;2023-05-10T05:21:13;14.80;99.90
21039;DHT22;10678;51.002;4.786;2023-05-10T05:23:40;14.80;99.90
21039;DHT22;10678;51.002;4.786;2023-05-10T05:26:06;14.90;99.90
21039;DHT22;10678;51.002;4.786;2023-05-10T05:28:31;14.90;99.90
21039;DHT22;10678;51.002;4.786;2023-05-10T05:30:59;15.10;99.90
21039;DHT22;10678;51.002;4.786;2023-05-10T05:33:25;15.10;99.90
21039;DHT22;10678;51.002;4.786;2023-05-10T05:35:51;15.20;99.90
21039;DHT22;10678;51.002;4.786;2023-05-10T05:38:17;15.30;99.90
21039;DHT22;10678;51.002;4.786;2023-05-10T05:40:43;15.30;99.90
21039;DHT22;10678;51.002;4.786;2023-05-10T05:43:09;15.30;99.90
21039;DHT22;10678;51.002;4.786;2023-05-10T05:45:34;15.40;99.90
21039;DHT22;10678;51.002;4.786;2023-05-10T05:48:00;15.50;99.90
21039;DHT22;10678;51.002;4.786;2023-05-10T05:50:26;15.70;99.90
21039;DHT22;10678;51.002;4.786;2023-05-10T05:52:51;15.70;99.90
21039;DHT22;10678;51.002;4.786;2023-05-10T05:55:17;15.60;99.90
21039;DHT22;10678;51.002;4.786;2023-05-10T05:57:42;15.80;99.90
21039;DHT22;10678;51.002;4.786;2023-05-10T06:00:08;15.80;99.90
21039;DHT22;10678;51.002;4.786;2023-05-10T06:02:34;15.70;99.90
21039;DHT22;10678;51.002;4.786;2023-05-10T06:05:00;15.70;99.90
21039;DHT22;10678;51.002;4.786;2023-05-10T06:07:25;15.80;99.90
21039;DHT22;10678;51.002;4.786;2023-05-10T06:09:51;16.00;99.90
21039;DHT22;10678;51.002;4.786;2023-05-10T06:12:16;16.10;99.90
21039;DHT22;10678;51.002;4.786;2023-05-10T06:14:42;16.20;99.90
21039;DHT22;10678;51.002;4.786;2023-05-10T06:17:08;16.30;99.90
21039;DHT22;10678;51.002;4.786;2023-05-10T06:19:33;16.40;99.90
21039;DHT22;10678;51.002;4.786;2023-05-10T06:21:59;16.50;99.90
21039;DHT22;10678;51.002;4.786;2023-05-10T06:24:25;16.70;99.90
21039;DHT22;10678;51.002;4.786;2023-05-10T06:26:50;16.70;99.90
21039;DHT22;10678;51.002;4.786;2023-05-10T06:29:16;16.80;99.90
21039;DHT22;10678;51.002;4.786;2023-05-10T06:31:42;16.80;99.90
21039;DHT22;10678;51.002;4.786;2023-05-10T06:34:07;16.80;99.90
21039;DHT22;10678;51.002;4.786;2023-05-10T06:36:33;16.80;99.90
21039;DHT22;10678;51.002;4.786;2023-05-10T06:38:59;16.80;99.90
21039;DHT22;10678;51.002;4.786;2023-05-10T06:41:25;16.80;99.90
21039;DHT22;10678;51.002;4.786;2023-05-10T06:43:50;16.70;99.90
21039;DHT22;10678;51.002;4.786;2023-05-10T06:46:16;16.70;99.90
21039;DHT22;10678;51.002;4.786;2023-05-10T06:48:41;16.60;99.90
21039;DHT22;10678;51.002;4.786;2023-05-10T06:51:07;16.50;99.90
21039;DHT22;10678;51.002;4.786;2023-05-10T06:53:33;16.60;99.90
21039;DHT22;10678;51.002;4.786;2023-05-10T06:55:58;16.60;99.90
21039;DHT22;10678;51.002;4.786;2023-05-10T06:58:24;16.70;99.90
21039;DHT22;10678;51.002;4.786;2023-05-10T07:00:50;16.70;99.90
21039;DHT22;10678;51.002;4.786;2023-05-10T07:03:16;16.80;99.90
21039;DHT22;10678;51.002;4.786;2023-05-10T07:05:42;17.00;99.90
21039;DHT22;10678;51.002;4.786;2023-05-10T07:08:07;17.00;99.90
21039;DHT22;10678;51.002;4.786;2023-05-10T07:10:33;16.90;99.90
21039;DHT22;10678;51.002;4.786;2023-05-10T07:12:59;17.10;99.90
21039;DHT22;10678;51.002;4.786;2023-05-10T07:15:26;17.00;99.90
21039;DHT22;10678;51.002;4.786;2023-05-10T07:17:52;17.00;99.90
21039;DHT22;10678;51.002;4.786;2023-05-10T07:20:18;17.00;99.90
21039;DHT22;10678;51.002;4.786;2023-05-10T07:22:43;17.00;99.90
21039;DHT22;10678;51.002;4.786;2023-05-10T07:25:09;17.00;99.90
21039;DHT22;10678;51.002;4.786;2023-05-10T07:27:35;16.90;99.90
21039;DHT22;10678;51.002;4.786;2023-05-10T07:30:00;16.90;99.90
21039;DHT22;10678;51.002;4.786;2023-05-10T07:32:26;16.80;99.90
21039;DHT22;10678;51.002;4.786;2023-05-10T07:34:52;16.90;99.90
21039;DHT22;10678;51.002;4.786;2023-05-10T07:37:18;16.90;99.90
21039;DHT22;10678;51.002;4.786;2023-05-10T07:39:43;16.90;99.90
21039;DHT22;10678;51.002;4.786;2023-05-10T07:42:09;16.80;99.90
21039;DHT22;10678;51.002;4.786;2023-05-10T07:44:35;16.90;99.90
21039;DHT22;10678;51.002;4.786;2023-05-10T07:47:00;17.00;99.90
21039;DHT22;10678;51.002;4.786;2023-05-10T07:49:26;17.20;99.90
21039;DHT22;10678;51.002;4.786;2023-05-10T07:51:51;17.20;99.90
21039;DHT22;10678;51.002;4.786;2023-05-10T07:54:17;17.20;99.90
21039;DHT22;10678;51.002;4.786;2023-05-10T07:56:43;17.30;99.90
21039;DHT22;10678;51.002;4.786;2023-05-10T07:59:16;17.30;99.90
21039;DHT22;10678;51.002;4.786;2023-05-10T08:01:42;17.10;99.90
21039;DHT22;10678;51.002;4.786;2023-05-10T08:04:08;17.00;99.90
21039;DHT22;10678;51.002;4.786;2023-05-10T08:06:34;17.00;99.90
21039;DHT22;10678;51.002;4.786;2023-05-10T08:09:00;16.90;99.90
21039;DHT22;10678;51.002;4.786;2023-05-10T08:11:26;16.80;99.90
21039;DHT22;10678;51.002;4.786;2023-05-10T08:13:53;16.70;99.90
21039;DHT22;10678;51.002;4.786;2023-05-10T08:16:19;16.50;99.90
21039;DHT22;10678;51.002;4.786;2023-05-10T08:18:45;16.70;99.90
21039;DHT22;10678;51.002;4.786;2023-05-10T08:21:12;16.80;99.90
21039;DHT22;10678;51.002;4.786;2023-05-10T08:23:38;16.80;99.90
21039;DHT22;10678;51.002;4.786;2023-05-10T08:26:04;16.70;99.90
21039;DHT22;10678;51.002;4.786;2023-05-10T08:28:30;16.90;99.90
21039;DHT22;10678;51.002;4.786;2023-05-10T08:30:56;16.90;99.90
21039;DHT22;10678;51.002;4.786;2023-05-10T08:33:22;16.90;99.90
21039;DHT22;10678;51.002;4.786;2023-05-10T08:35:47;16.80;99.90
21039;DHT22;10678;51.002;4.786;2023-05-10T08:38:13;16.80;99.90
21039;DHT22;10678;51.002;4.786;2023-05-10T08:40:43;16.90;99.90
21039;DHT22;10678;51.002;4.786;2023-05-10T08:43:13;16.90;99.90
21039;DHT22;10678;51.002;4.786;2023-05-10T08:45:42;17.00;99.90
21039;DHT22;10678;51.002;4.786;2023-05-10T08:48:09;17.10;99.90
21039;DHT22;10678;51.002;4.786;2023-05-10T08:50:36;17.20;99.90
21039;DHT22;10678;51.002;4.786;2023-05-10T08:53:05;17.30;99.90
21039;DHT22;10678;51.002;4.786;2023-05-10T08:55:32;17.30;99.90
21039;DHT22;10678;51.002;4.786;2023-05-10T08:57:59;17.30;99.90
21039;DHT22;10678;51.002;4.786;2023-05-10T09:00:25;17.20;99.90
21039;DHT22;10678;51.002;4.786;2023-05-10T09:02:51;17.10;99.90
21039;DHT22;10678;51.002;4.786;2023-05-10T09:05:17;17.00;99.90
21039;DHT22;10678;51.002;4.786;2023-05-10T09:07:43;17.10;99.90
21039;DHT22;10678;51.002;4.786;2023-05-10T09:10:11;17.40;99.90
21039;DHT22;10678;51.002;4.786;2023-05-10T09:12:37;17.80;99.90
21039;DHT22;10678;51.002;4.786;2023-05-10T09:15:04;18.30;99.90
21039;DHT22;10678;51.002;4.786;2023-05-10T09:17:31;18.50;99.90
21039;DHT22;10678;51.002;4.786;2023-05-10T09:19:58;18.70;99.90
21039;DHT22;10678;51.002;4.786;2023-05-10T09:22:24;18.80;99.90
21039;DHT22;10678;51.002;4.786;2023-05-10T09:27:35;19.50;99.90
21039;DHT22;10678;51.002;4.786;2023-05-10T09:30:02;20.00;99.90
21039;DHT22;10678;51.002;4.786;2023-05-10T09:32:39;20.20;99.90
21039;DHT22;10678;51.002;4.786;2023-05-10T09:35:13;20.20;99.90
21039;DHT22;10678;51.002;4.786;2023-05-10T09:37:40;19.90;99.90
21039;DHT22;10678;51.002;4.786;2023-05-10T09:40:23;19.70;99.90
21039;DHT22;10678;51.002;4.786;2023-05-10T09:43:02;19.30;99.90
21039;DHT22;10678;51.002;4.786;2023-05-10T09:45:31;19.10;99.90
21039;DHT22;10678;51.002;4.786;2023-05-10T09:47:59;18.70;99.90
21039;DHT22;10678;51.002;4.786;2023-05-10T09:50:26;18.70;99.90
21039;DHT22;10678;51.002;4.786;2023-05-10T09:52:59;18.50;99.90
21039;DHT22;10678;51.002;4.786;2023-05-10T09:55:46;18.20;99.90
21039;DHT22;10678;51.002;4.786;2023-05-10T09:58:12;17.70;99.90
21039;DHT22;10678;51.002;4.786;2023-05-10T10:00:44;17.70;99.90
21039;DHT22;10678;51.002;4.786;2023-05-10T10:03:18;17.80;99.90
21039;DHT22;10678;51.002;4.786;2023-05-10T10:05:44;18.20;99.90
21039;DHT22;10678;51.002;4.786;2023-05-10T10:08:12;18.60;99.90
21039;DHT22;10678;51.002;4.786;2023-05-10T10:10:38;19.20;99.90
21039;DHT22;10678;51.002;4.786;2023-05-10T10:13:06;19.40;99.90
21039;DHT22;10678;51.002;4.786;2023-05-10T10:15:36;19.40;99.90
21039;DHT22;10678;51.002;4.786;2023-05-10T10:18:02;19.40;99.90
21039;DHT22;10678;51.002;4.786;2023-05-10T10:20:29;19.00;99.90
21039;DHT22;10678;51.002;4.786;2023-05-10T10:22:55;19.10;99.90
21039;DHT22;10678;51.002;4.786;2023-05-10T10:25:21;18.80;99.90
21039;DHT22;10678;51.002;4.786;2023-05-10T10:27:49;18.70;99.90
21039;DHT22;10678;51.002;4.786;2023-05-10T10:35:54;18.80;99.90
21039;DHT22;10678;51.002;4.786;2023-05-10T10:38:20;18.70;99.90
21039;DHT22;10678;51.002;4.786;2023-05-10T10:40:47;18.90;99.90
21039;DHT22;10678;51.002;4.786;2023-05-10T10:43:27;18.90;99.90
21039;DHT22;10678;51.002;4.786;2023-05-10T10:46:28;19.10;99.90
21039;DHT22;10678;51.002;4.786;2023-05-10T10:49:10;19.30;99.90
21039;DHT22;10678;51.002;4.786;2023-05-10T10:51:39;19.70;99.90
21039;DHT22;10678;51.002;4.786;2023-05-10T10:54:11;20.10;99.90
21039;DHT22;10678;51.002;4.786;2023-05-10T10:56:37;20.90;99.90
21039;DHT22;10678;51.002;4.786;2023-05-10T10:59:03;21.80;99.90
21039;DHT22;10678;51.002;4.786;2023-05-10T11:01:33;22.50;99.90
21039;DHT22;10678;51.002;4.786;2023-05-10T11:06:31;22.40;99.90
21039;DHT22;10678;51.002;4.786;2023-05-10T11:08:58;22.00;99.90
21039;DHT22;10678;51.002;4.786;2023-05-10T11:11:24;21.90;99.90
21039;DHT22;10678;51.002;4.786;2023-05-10T11:13:50;21.80;99.90
21039;DHT22;10678;51.002;4.786;2023-05-10T11:16:20;21.70;99.90
21039;DHT22;10678;51.002;4.786;2023-05-10T11:19:07;21.80;99.90
21039;DHT22;10678;51.002;4.786;2023-05-10T11:21:45;22.20;99.90
21039;DHT22;10678;51.002;4.786;2023-05-10T11:24:16;22.40;99.90
21039;DHT22;10678;51.002;4.786;2023-05-10T11:26:42;22.70;99.90
21039;DHT22;10678;51.002;4.786;2023-05-10T11:29:08;22.60;99.90
21039;DHT22;10678;51.002;4.786;2023-05-10T11:31:34;22.40;99.90
21039;DHT22;10678;51.002;4.786;2023-05-10T11:34:01;22.40;99.90
21039;DHT22;10678;51.002;4.786;2023-05-10T11:36:33;22.50;99.90
21039;DHT22;10678;51.002;4.786;2023-05-10T11:38:59;22.40;99.90
21039;DHT22;10678;51.002;4.786;2023-05-10T11:41:27;22.20;99.90
21039;DHT22;10678;51.002;4.786;2023-05-10T11:43:54;21.80;99.90
21039;DHT22;10678;51.002;4.786;2023-05-10T11:46:23;21.70;99.90
21039;DHT22;10678;51.002;4.786;2023-05-10T11:48:58;21.60;99.90
21039;DHT22;10678;51.002;4.786;2023-05-10T11:51:26;21.80;99.90
21039;DHT22;10678;51.002;4.786;2023-05-10T11:53:56;21.70;99.90
21039;DHT22;10678;51.002;4.786;2023-05-10T11:56:22;21.60;99.90
21039;DHT22;10678;51.002;4.786;2023-05-10T11:58:56;21.70;99.90
21039;DHT22;10678;51.002;4.786;2023-05-10T12:01:24;21.50;99.90
21039;DHT22;10678;51.002;4.786;2023-05-10T12:03:52;21.50;99.90
21039;DHT22;10678;51.002;4.786;2023-05-10T12:06:19;21.50;99.90
21039;DHT22;10678;51.002;4.786;2023-05-10T12:08:47;21.50;99.90
21039;DHT22;10678;51.002;4.786;2023-05-10T12:11:13;21.30;99.90
21039;DHT22;10678;51.002;4.786;2023-05-10T12:13:42;21.20;99.90
21039;DHT22;10678;51.002;4.786;2023-05-10T12:18:50;21.30;99.90
21039;DHT22;10678;51.002;4.786;2023-05-10T12:21:16;21.40;99.90
21039;DHT22;10678;51.002;4.786;2023-05-10T12:23:42;21.10;99.90
21039;DHT22;10678;51.002;4.786;2023-05-10T12:26:10;21.00;99.90
21039;DHT22;10678;51.002;4.786;2023-05-10T12:28:37;21.30;99.90
21039;DHT22;10678;51.002;4.786;2023-05-10T12:31:03;21.80;99.90
21039;DHT22;10678;51.002;4.786;2023-05-10T12:33:39;22.20;99.90
21039;DHT22;10678;51.002;4.786;2023-05-10T12:36:09;22.60;99.90
21039;DHT22;10678;51.002;4.786;2023-05-10T12:38:35;22.90;99.90
21039;DHT22;10678;51.002;4.786;2023-05-10T12:41:05;23.40;99.90
21039;DHT22;10678;51.002;4.786;2023-05-10T12:43:32;23.70;99.90
21039;DHT22;10678;51.002;4.786;2023-05-10T12:45:58;24.10;99.90
21039;DHT22;10678;51.002;4.786;2023-05-10T12:48:24;23.70;99.90
21039;DHT22;10678;51.002;4.786;2023-05-10T12:50:49;23.80;99.90
21039;DHT22;10678;51.002;4.786;2023-05-10T12:53:15;23.70;99.90
21039;DHT22;10678;51.002;4.786;2023-05-10T12:55:42;24.00;99.90
21039;DHT22;10678;51.002;4.786;2023-05-10T12:58:07;23.90;99.90
21039;DHT22;10678;51.002;4.786;2023-05-10T13:00:33;23.80;99.90
21039;DHT22;10678;51.002;4.786;2023-05-10T13:02:59;23.70;99.90
21039;DHT22;10678;51.002;4.786;2023-05-10T13:05:24;23.50;99.90
21039;DHT22;10678;51.002;4.786;2023-05-10T13:07:50;23.40;99.90
21039;DHT22;10678;51.002;4.786;2023-05-10T13:10:16;23.00;99.90
21039;DHT22;10678;51.002;4.786;2023-05-10T13:12:41;23.00;99.90
21039;DHT22;10678;51.002;4.786;2023-05-10T13:15:07;23.10;99.90
21039;DHT22;10678;51.002;4.786;2023-05-10T13:17:33;23.10;99.90
21039;DHT22;10678;51.002;4.786;2023-05-10T13:19:59;23.30;99.90
21039;DHT22;10678;51.002;4.786;2023-05-10T13:22:25;23.40;99.90
21039;DHT22;10678;51.002;4.786;2023-05-10T13:24:50;23.90;99.90
21039;DHT22;10678;51.002;4.786;2023-05-10T13:27:16;24.20;99.90
21039;DHT22;10678;51.002;4.786;2023-05-10T13:29:41;24.20;99.90
21039;DHT22;10678;51.002;4.786;2023-05-10T13:32:07;23.90;99.90
21039;DHT22;10678;51.002;4.786;2023-05-10T13:34:33;23.50;99.90
21039;DHT22;10678;51.002;4.786;2023-05-10T13:36:58;23.50;99.90
21039;DHT22;10678;51.002;4.786;2023-05-10T13:39:24;23.20;99.90
21039;DHT22;10678;51.002;4.786;2023-05-10T13:41:50;23.10;99.90
21039;DHT22;10678;51.002;4.786;2023-05-10T13:44:15;23.00;99.90
21039;DHT22;10678;51.002;4.786;2023-05-10T13:46:41;23.20;99.90
21039;DHT22;10678;51.002;4.786;2023-05-10T13:49:10;23.20;99.90
21039;DHT22;10678;51.002;4.786;2023-05-10T13:51:36;23.00;99.90
21039;DHT22;10678;51.002;4.786;2023-05-10T13:54:04;22.90;99.90
21039;DHT22;10678;51.002;4.786;2023-05-10T13:56:30;22.80;99.90
21039;DHT22;10678;51.002;4.786;2023-05-10T13:58:59;22.50;99.90
21039;DHT22;10678;51.002;4.786;2023-05-10T14:01:24;22.30;99.90
21039;DHT22;10678;51.002;4.786;2023-05-10T14:03:50;22.20;99.90
21039;DHT22;10678;51.002;4.786;2023-05-10T14:06:16;22.30;99.90
21039;DHT22;10678;51.002;4.786;2023-05-10T14:08:42;21.90;99.90
21039;DHT22;10678;51.002;4.786;2023-05-10T14:11:08;21.90;99.90
21039;DHT22;10678;51.002;4.786;2023-05-10T14:13:34;21.70;99.90
21039;DHT22;10678;51.002;4.786;2023-05-10T14:16:00;21.80;99.90
21039;DHT22;10678;51.002;4.786;2023-05-10T14:18:29;21.70;99.90
21039;DHT22;10678;51.002;4.786;2023-05-10T14:20:54;21.50;99.90
21039;DHT22;10678;51.002;4.786;2023-05-10T14:23:22;21.40;99.90
21039;DHT22;10678;51.002;4.786;2023-05-10T14:25:50;21.50;99.90
21039;DHT22;10678;51.002;4.786;2023-05-10T14:28:16;21.40;99.90
21039;DHT22;10678;51.002;4.786;2023-05-10T14:30:43;21.70;99.90
21039;DHT22;10678;51.002;4.786;2023-05-10T14:33:09;21.70;99.90
21039;DHT22;10678;51.002;4.786;2023-05-10T14:35:35;21.70;99.90
21039;DHT22;10678;51.002;4.786;2023-05-10T14:38:02;21.80;99.90
21039;DHT22;10678;51.002;4.786;2023-05-10T14:40:29;21.30;99.90
21039;DHT22;10678;51.002;4.786;2023-05-10T14:42:54;21.30;99.90
21039;DHT22;10678;51.002;4.786;2023-05-10T14:45:21;21.00;99.90
21039;DHT22;10678;51.002;4.786;2023-05-10T14:47:46;21.00;99.90
21039;DHT22;10678;51.002;4.786;2023-05-10T14:50:12;21.00;99.90
21039;DHT22;10678;51.002;4.786;2023-05-10T14:52:38;21.00;99.90
21039;DHT22;10678;51.002;4.786;2023-05-10T14:55:03;21.00;99.90
21039;DHT22;10678;51.002;4.786;2023-05-10T14:57:29;20.90;99.90
21039;DHT22;10678;51.002;4.786;2023-05-10T14:59:55;20.80;99.90
21039;DHT22;10678;51.002;4.786;2023-05-10T15:02:22;20.70;99.90
21039;DHT22;10678;51.002;4.786;2023-05-10T15:04:47;20.70;99.90
21039;DHT22;10678;51.002;4.786;2023-05-10T15:07:13;20.70;99.90
21039;DHT22;10678;51.002;4.786;2023-05-10T15:09:40;20.50;99.90
21039;DHT22;10678;51.002;4.786;2023-05-10T15:12:06;20.60;99.90
21039;DHT22;10678;51.002;4.786;2023-05-10T15:14:32;20.50;99.90
21039;DHT22;10678;51.002;4.786;2023-05-10T15:16:58;20.60;99.90
21039;DHT22;10678;51.002;4.786;2023-05-10T15:19:24;20.70;99.90
21039;DHT22;10678;51.002;4.786;2023-05-10T15:21:50;20.90;99.90
21039;DHT22;10678;51.002;4.786;2023-05-10T15:24:15;20.70;99.90
21039;DHT22;10678;51.002;4.786;2023-05-10T15:26:41;20.90;99.90
21039;DHT22;10678;51.002;4.786;2023-05-10T15:29:07;20.60;99.90
21039;DHT22;10678;51.002;4.786;2023-05-10T15:31:33;20.40;99.90
21039;DHT22;10678;51.002;4.786;2023-05-10T15:34:01;20.20;99.90
21039;DHT22;10678;51.002;4.786;2023-05-10T15:36:27;19.90;99.90
21039;DHT22;10678;51.002;4.786;2023-05-10T15:38:55;19.50;99.90
21039;DHT22;10678;51.002;4.786;2023-05-10T15:41:21;19.30;99.90
21039;DHT22;10678;51.002;4.786;2023-05-10T15:43:47;19.10;99.90
21039;DHT22;10678;51.002;4.786;2023-05-10T15:46:12;19.10;99.90
21039;DHT22;10678;51.002;4.786;2023-05-10T15:48:38;18.90;99.90
21039;DHT22;10678;51.002;4.786;2023-05-10T15:51:04;18.80;99.90
21039;DHT22;10678;51.002;4.786;2023-05-10T15:53:30;18.70;99.90
21039;DHT22;10678;51.002;4.786;2023-05-10T15:55:56;18.80;99.90
21039;DHT22;10678;51.002;4.786;2023-05-10T15:58:21;18.70;99.90
21039;DHT22;10678;51.002;4.786;2023-05-10T16:00:47;18.70;99.90